sensor_id;sensor_type;location;lat;lon;timestamp;P1;durP1;ratioP1;P2;durP2;ratioP2
51270;SDS011;37744;50.960;4.136;2023-02-28T00:00:46;11.10;;;6.50;;
51270;SDS011;37744;50.960;4.136;2023-02-28T00:03:11;10.57;;;6.72;;
51270;SDS011;37744;50.960;4.136;2023-02-28T00:05:36;11.40;;;6.47;;
51270;SDS011;37744;50.960;4.136;2023-02-28T00:08:01;12.23;;;6.50;;
51270;SDS011;37744;50.960;4.136;2023-02-28T00:13:03;10.95;;;6.63;;
51270;SDS011;37744;50.960;4.136;2023-02-28T00:15:29;13.18;;;7.30;;
51270;SDS011;37744;50.960;4.136;2023-02-28T00:17:54;15.27;;;7.63;;
51270;SDS011;37744;50.960;4.136;2023-02-28T00:20:19;13.95;;;7.40;;
51270;SDS011;37744;50.960;4.136;2023-02-28T00:22:46;14.15;;;7.50;;
51270;SDS011;37744;50.960;4.136;2023-02-28T00:25:12;13.35;;;8.15;;
51270;SDS011;37744;50.960;4.136;2023-02-28T00:27:38;13.68;;;7.78;;
51270;SDS011;37744;50.960;4.136;2023-02-28T00:30:05;13.65;;;7.00;;
51270;SDS011;37744;50.960;4.136;2023-02-28T00:32:30;13.40;;;6.60;;
51270;SDS011;37744;50.960;4.136;2023-02-28T00:34:56;9.77;;;6.70;;
51270;SDS011;37744;50.960;4.136;2023-02-28T00:37:21;11.32;;;6.78;;
51270;SDS011;37744;50.960;4.136;2023-02-28T00:39:46;15.05;;;6.10;;
51270;SDS011;37744;50.960;4.136;2023-02-28T00:42:12;13.55;;;6.53;;
51270;SDS011;37744;50.960;4.136;2023-02-28T00:44:37;14.45;;;6.90;;
51270;SDS011;37744;50.960;4.136;2023-02-28T00:47:02;10.35;;;6.22;;
51270;SDS011;37744;50.960;4.136;2023-02-28T00:49:27;12.82;;;6.50;;
51270;SDS011;37744;50.960;4.136;2023-02-28T00:51:53;10.88;;;6.57;;
51270;SDS011;37744;50.960;4.136;2023-02-28T00:54:19;9.25;;;5.88;;
51270;SDS011;37744;50.960;4.136;2023-02-28T00:56:45;9.23;;;5.85;;
51270;SDS011;37744;50.960;4.136;2023-02-28T00:59:13;10.75;;;6.57;;
51270;SDS011;37744;50.960;4.136;2023-02-28T01:01:39;13.82;;;6.53;;
51270;SDS011;37744;50.960;4.136;2023-02-28T01:04:04;9.90;;;6.03;;
51270;SDS011;37744;50.960;4.136;2023-02-28T01:06:30;9.35;;;6.18;;
51270;SDS011;37744;50.960;4.136;2023-02-28T01:08:55;11.70;;;6.20;;
51270;SDS011;37744;50.960;4.136;2023-02-28T01:11:20;11.00;;;5.70;;
51270;SDS011;37744;50.960;4.136;2023-02-28T01:13:45;11.38;;;6.13;;
51270;SDS011;37744;50.960;4.136;2023-02-28T01:16:11;10.40;;;6.20;;
51270;SDS011;37744;50.960;4.136;2023-02-28T01:18:37;12.25;;;6.32;;
51270;SDS011;37744;50.960;4.136;2023-02-28T01:21:07;12.65;;;6.50;;
51270;SDS011;37744;50.960;4.136;2023-02-28T01:23:33;13.32;;;6.45;;
51270;SDS011;37744;50.960;4.136;2023-02-28T01:26:03;13.43;;;6.53;;
51270;SDS011;37744;50.960;4.136;2023-02-28T01:28:29;9.50;;;6.07;;
51270;SDS011;37744;50.960;4.136;2023-02-28T01:30:54;11.60;;;6.65;;
51270;SDS011;37744;50.960;4.136;2023-02-28T01:33:20;11.00;;;6.55;;
51270;SDS011;37744;50.960;4.136;2023-02-28T01:35:45;8.73;;;6.07;;
51270;SDS011;37744;50.960;4.136;2023-02-28T01:38:10;13.00;;;7.15;;
51270;SDS011;37744;50.960;4.136;2023-02-28T01:40:35;14.15;;;6.93;;
51270;SDS011;37744;50.960;4.136;2023-02-28T01:43:00;12.57;;;7.07;;
51270;SDS011;37744;50.960;4.136;2023-02-28T01:45:30;12.15;;;6.95;;
51270;SDS011;37744;50.960;4.136;2023-02-28T01:47:57;18.70;;;6.95;;
51270;SDS011;37744;50.960;4.136;2023-02-28T01:50:24;11.20;;;6.85;;
51270;SDS011;37744;50.960;4.136;2023-02-28T01:52:52;14.38;;;6.80;;
51270;SDS011;37744;50.960;4.136;2023-02-28T01:55:19;15.00;;;7.10;;
51270;SDS011;37744;50.960;4.136;2023-02-28T01:57:46;12.85;;;6.63;;
51270;SDS011;37744;50.960;4.136;2023-02-28T02:00:14;15.95;;;7.82;;
51270;SDS011;37744;50.960;4.136;2023-02-28T02:02:41;17.08;;;7.55;;
51270;SDS011;37744;50.960;4.136;2023-02-28T02:05:08;12.15;;;7.47;;
51270;SDS011;37744;50.960;4.136;2023-02-28T02:07:38;13.35;;;6.85;;
51270;SDS011;37744;50.960;4.136;2023-02-28T02:10:17;9.85;;;7.03;;
51270;SDS011;37744;50.960;4.136;2023-02-28T02:17:35;15.05;;;7.15;;
51270;SDS011;37744;50.960;4.136;2023-02-28T02:28:11;13.02;;;6.95;;
51270;SDS011;37744;50.960;4.136;2023-02-28T02:41:17;108.28;;;41.85;;
51270;SDS011;37744;50.960;4.136;2023-02-28T02:43:46;61.05;;;29.67;;
51270;SDS011;37744;50.960;4.136;2023-02-28T02:46:14;39.15;;;21.50;;
51270;SDS011;37744;50.960;4.136;2023-02-28T02:48:42;33.28;;;18.23;;
51270;SDS011;37744;50.960;4.136;2023-02-28T02:51:15;21.35;;;12.23;;
51270;SDS011;37744;50.960;4.136;2023-02-28T02:53:47;17.05;;;10.23;;
51270;SDS011;37744;50.960;4.136;2023-02-28T02:56:14;15.73;;;9.57;;
51270;SDS011;37744;50.960;4.136;2023-02-28T02:58:41;15.27;;;9.85;;
51270;SDS011;37744;50.960;4.136;2023-02-28T03:01:08;14.85;;;8.90;;
51270;SDS011;37744;50.960;4.136;2023-02-28T03:03:35;14.63;;;8.50;;
51270;SDS011;37744;50.960;4.136;2023-02-28T03:06:01;16.98;;;8.45;;
51270;SDS011;37744;50.960;4.136;2023-02-28T03:08:28;15.55;;;8.88;;
51270;SDS011;37744;50.960;4.136;2023-02-28T03:10:57;14.02;;;7.95;;
51270;SDS011;37744;50.960;4.136;2023-02-28T03:21:12;17.35;;;8.82;;
51270;SDS011;37744;50.960;4.136;2023-02-28T03:26:07;13.27;;;8.38;;
51270;SDS011;37744;50.960;4.136;2023-02-28T03:31:26;14.60;;;8.77;;
51270;SDS011;37744;50.960;4.136;2023-02-28T03:34:10;16.50;;;8.88;;
51270;SDS011;37744;50.960;4.136;2023-02-28T03:36:38;15.48;;;9.13;;
51270;SDS011;37744;50.960;4.136;2023-02-28T03:39:09;12.95;;;8.50;;
51270;SDS011;37744;50.960;4.136;2023-02-28T03:41:48;17.73;;;9.07;;
51270;SDS011;37744;50.960;4.136;2023-02-28T03:44:36;13.43;;;8.48;;
51270;SDS011;37744;50.960;4.136;2023-02-28T03:47:08;16.27;;;9.98;;
51270;SDS011;37744;50.960;4.136;2023-02-28T03:49:38;16.02;;;10.20;;
51270;SDS011;37744;50.960;4.136;2023-02-28T03:52:06;14.02;;;9.02;;
51270;SDS011;37744;50.960;4.136;2023-02-28T03:54:33;19.55;;;10.13;;
51270;SDS011;37744;50.960;4.136;2023-02-28T03:57:04;15.23;;;8.95;;
51270;SDS011;37744;50.960;4.136;2023-02-28T03:59:32;16.63;;;9.32;;
51270;SDS011;37744;50.960;4.136;2023-02-28T04:01:59;17.45;;;10.00;;
51270;SDS011;37744;50.960;4.136;2023-02-28T04:04:24;17.90;;;10.40;;
51270;SDS011;37744;50.960;4.136;2023-02-28T04:06:50;19.42;;;10.10;;
51270;SDS011;37744;50.960;4.136;2023-02-28T04:09:16;18.80;;;10.10;;
51270;SDS011;37744;50.960;4.136;2023-02-28T04:14:07;14.45;;;8.95;;
51270;SDS011;37744;50.960;4.136;2023-02-28T04:16:33;18.48;;;10.80;;
51270;SDS011;37744;50.960;4.136;2023-02-28T04:18:59;14.65;;;9.85;;
51270;SDS011;37744;50.960;4.136;2023-02-28T04:21:28;17.92;;;10.02;;
51270;SDS011;37744;50.960;4.136;2023-02-28T04:23:53;16.85;;;9.45;;
51270;SDS011;37744;50.960;4.136;2023-02-28T04:26:18;17.27;;;10.15;;
51270;SDS011;37744;50.960;4.136;2023-02-28T04:28:43;19.17;;;10.13;;
51270;SDS011;37744;50.960;4.136;2023-02-28T04:31:09;17.27;;;10.18;;
51270;SDS011;37744;50.960;4.136;2023-02-28T04:33:34;16.67;;;10.02;;
51270;SDS011;37744;50.960;4.136;2023-02-28T04:36:06;16.65;;;10.00;;
51270;SDS011;37744;50.960;4.136;2023-02-28T04:38:33;19.52;;;10.77;;
51270;SDS011;37744;50.960;4.136;2023-02-28T04:40:59;23.55;;;10.93;;
51270;SDS011;37744;50.960;4.136;2023-02-28T04:43:25;17.60;;;10.82;;
51270;SDS011;37744;50.960;4.136;2023-02-28T04:45:51;16.63;;;10.10;;
51270;SDS011;37744;50.960;4.136;2023-02-28T04:48:16;21.38;;;11.13;;
51270;SDS011;37744;50.960;4.136;2023-02-28T04:50:42;19.10;;;10.65;;
51270;SDS011;37744;50.960;4.136;2023-02-28T04:53:07;20.77;;;10.60;;
51270;SDS011;37744;50.960;4.136;2023-02-28T04:55:32;18.90;;;10.77;;
51270;SDS011;37744;50.960;4.136;2023-02-28T04:57:57;20.77;;;10.50;;
51270;SDS011;37744;50.960;4.136;2023-02-28T05:00:22;24.27;;;12.18;;
51270;SDS011;37744;50.960;4.136;2023-02-28T05:02:48;21.48;;;11.18;;
51270;SDS011;37744;50.960;4.136;2023-02-28T05:05:13;22.25;;;10.70;;
51270;SDS011;37744;50.960;4.136;2023-02-28T05:07:43;17.20;;;9.85;;
51270;SDS011;37744;50.960;4.136;2023-02-28T05:10:08;17.67;;;10.13;;
51270;SDS011;37744;50.960;4.136;2023-02-28T05:12:34;18.02;;;10.50;;
51270;SDS011;37744;50.960;4.136;2023-02-28T05:14:59;21.45;;;10.48;;
51270;SDS011;37744;50.960;4.136;2023-02-28T05:17:24;19.00;;;10.73;;
51270;SDS011;37744;50.960;4.136;2023-02-28T05:19:49;17.08;;;10.88;;
51270;SDS011;37744;50.960;4.136;2023-02-28T05:22:15;18.17;;;9.88;;
51270;SDS011;37744;50.960;4.136;2023-02-28T05:24:41;16.90;;;10.07;;
51270;SDS011;37744;50.960;4.136;2023-02-28T05:27:07;16.60;;;10.05;;
51270;SDS011;37744;50.960;4.136;2023-02-28T05:29:32;22.35;;;9.65;;
51270;SDS011;37744;50.960;4.136;2023-02-28T05:31:58;17.48;;;10.10;;
51270;SDS011;37744;50.960;4.136;2023-02-28T05:34:23;18.70;;;10.35;;
51270;SDS011;37744;50.960;4.136;2023-02-28T05:36:48;15.73;;;10.05;;
51270;SDS011;37744;50.960;4.136;2023-02-28T05:39:13;20.85;;;9.73;;
51270;SDS011;37744;50.960;4.136;2023-02-28T05:41:39;19.17;;;10.05;;
51270;SDS011;37744;50.960;4.136;2023-02-28T05:44:05;18.70;;;9.32;;
51270;SDS011;37744;50.960;4.136;2023-02-28T05:46:30;17.88;;;10.27;;
51270;SDS011;37744;50.960;4.136;2023-02-28T05:48:55;20.05;;;10.10;;
51270;SDS011;37744;50.960;4.136;2023-02-28T05:51:22;17.05;;;10.15;;
51270;SDS011;37744;50.960;4.136;2023-02-28T05:53:48;17.08;;;9.23;;
51270;SDS011;37744;50.960;4.136;2023-02-28T05:56:14;17.17;;;9.45;;
51270;SDS011;37744;50.960;4.136;2023-02-28T05:58:39;21.15;;;9.77;;
51270;SDS011;37744;50.960;4.136;2023-02-28T06:01:24;21.92;;;10.10;;
51270;SDS011;37744;50.960;4.136;2023-02-28T06:03:51;16.98;;;9.85;;
51270;SDS011;37744;50.960;4.136;2023-02-28T06:06:16;19.08;;;8.93;;
51270;SDS011;37744;50.960;4.136;2023-02-28T06:08:42;15.68;;;9.40;;
51270;SDS011;37744;50.960;4.136;2023-02-28T06:11:08;19.30;;;9.68;;
51270;SDS011;37744;50.960;4.136;2023-02-28T06:13:33;20.08;;;9.65;;
51270;SDS011;37744;50.960;4.136;2023-02-28T06:16:02;20.15;;;11.45;;
51270;SDS011;37744;50.960;4.136;2023-02-28T06:18:27;17.02;;;9.80;;
51270;SDS011;37744;50.960;4.136;2023-02-28T06:20:55;17.92;;;10.00;;
51270;SDS011;37744;50.960;4.136;2023-02-28T06:23:21;17.05;;;10.07;;
51270;SDS011;37744;50.960;4.136;2023-02-28T06:25:46;17.38;;;10.02;;
51270;SDS011;37744;50.960;4.136;2023-02-28T06:28:12;21.27;;;10.02;;
51270;SDS011;37744;50.960;4.136;2023-02-28T06:30:37;14.48;;;9.45;;
51270;SDS011;37744;50.960;4.136;2023-02-28T06:33:03;16.58;;;9.88;;
51270;SDS011;37744;50.960;4.136;2023-02-28T06:35:28;48.10;;;18.02;;
51270;SDS011;37744;50.960;4.136;2023-02-28T06:37:55;41.58;;;15.40;;
51270;SDS011;37744;50.960;4.136;2023-02-28T06:40:20;22.95;;;11.13;;
51270;SDS011;37744;50.960;4.136;2023-02-28T06:42:45;15.63;;;9.30;;
51270;SDS011;37744;50.960;4.136;2023-02-28T06:45:11;17.52;;;8.80;;
51270;SDS011;37744;50.960;4.136;2023-02-28T06:47:37;18.92;;;9.25;;
51270;SDS011;37744;50.960;4.136;2023-02-28T06:50:04;12.60;;;8.70;;
51270;SDS011;37744;50.960;4.136;2023-02-28T06:52:29;15.00;;;9.50;;
51270;SDS011;37744;50.960;4.136;2023-02-28T06:54:55;16.27;;;8.75;;
51270;SDS011;37744;50.960;4.136;2023-02-28T06:57:31;16.50;;;9.73;;
51270;SDS011;37744;50.960;4.136;2023-02-28T06:59:57;14.05;;;8.50;;
51270;SDS011;37744;50.960;4.136;2023-02-28T07:02:23;16.90;;;9.23;;
51270;SDS011;37744;50.960;4.136;2023-02-28T07:04:48;22.38;;;8.95;;
51270;SDS011;37744;50.960;4.136;2023-02-28T07:07:14;13.05;;;8.43;;
51270;SDS011;37744;50.960;4.136;2023-02-28T07:09:39;18.35;;;8.73;;
51270;SDS011;37744;50.960;4.136;2023-02-28T07:12:04;14.10;;;9.15;;
51270;SDS011;37744;50.960;4.136;2023-02-28T07:14:29;18.25;;;9.38;;
51270;SDS011;37744;50.960;4.136;2023-02-28T07:16:55;16.60;;;9.82;;
51270;SDS011;37744;50.960;4.136;2023-02-28T07:19:20;19.38;;;10.32;;
51270;SDS011;37744;50.960;4.136;2023-02-28T07:21:45;13.30;;;8.43;;
51270;SDS011;37744;50.960;4.136;2023-02-28T07:24:11;14.98;;;9.13;;
51270;SDS011;37744;50.960;4.136;2023-02-28T07:26:36;15.98;;;8.65;;
51270;SDS011;37744;50.960;4.136;2023-02-28T07:29:01;24.33;;;10.02;;
51270;SDS011;37744;50.960;4.136;2023-02-28T07:31:27;19.33;;;9.38;;
51270;SDS011;37744;50.960;4.136;2023-02-28T07:33:52;16.90;;;9.25;;
51270;SDS011;37744;50.960;4.136;2023-02-28T07:36:19;19.58;;;9.02;;
51270;SDS011;37744;50.960;4.136;2023-02-28T07:38:44;14.18;;;8.38;;
51270;SDS011;37744;50.960;4.136;2023-02-28T07:41:11;18.77;;;8.52;;
51270;SDS011;37744;50.960;4.136;2023-02-28T07:43:36;22.33;;;8.75;;
51270;SDS011;37744;50.960;4.136;2023-02-28T07:46:03;15.27;;;8.82;;
51270;SDS011;37744;50.960;4.136;2023-02-28T07:48:28;18.27;;;8.63;;
51270;SDS011;37744;50.960;4.136;2023-02-28T07:50:54;15.48;;;8.60;;
51270;SDS011;37744;50.960;4.136;2023-02-28T07:53:20;18.35;;;9.23;;
51270;SDS011;37744;50.960;4.136;2023-02-28T07:55:45;14.73;;;8.32;;
51270;SDS011;37744;50.960;4.136;2023-02-28T07:58:10;17.38;;;8.30;;
51270;SDS011;37744;50.960;4.136;2023-02-28T08:00:36;12.25;;;8.77;;
51270;SDS011;37744;50.960;4.136;2023-02-28T08:03:01;17.77;;;8.40;;
51270;SDS011;37744;50.960;4.136;2023-02-28T08:05:26;13.32;;;8.15;;
51270;SDS011;37744;50.960;4.136;2023-02-28T08:07:51;16.00;;;8.98;;
51270;SDS011;37744;50.960;4.136;2023-02-28T08:10:18;16.15;;;9.38;;
51270;SDS011;37744;50.960;4.136;2023-02-28T08:12:43;14.68;;;8.32;;
51270;SDS011;37744;50.960;4.136;2023-02-28T08:15:09;15.80;;;8.00;;
51270;SDS011;37744;50.960;4.136;2023-02-28T08:17:34;13.50;;;7.88;;
51270;SDS011;37744;50.960;4.136;2023-02-28T08:19:59;11.45;;;6.97;;
51270;SDS011;37744;50.960;4.136;2023-02-28T08:22:24;11.30;;;6.70;;
51270;SDS011;37744;50.960;4.136;2023-02-28T08:24:50;13.60;;;7.30;;
51270;SDS011;37744;50.960;4.136;2023-02-28T08:27:15;14.38;;;7.57;;
51270;SDS011;37744;50.960;4.136;2023-02-28T08:29:40;14.65;;;6.90;;
51270;SDS011;37744;50.960;4.136;2023-02-28T08:32:06;13.50;;;6.97;;
51270;SDS011;37744;50.960;4.136;2023-02-28T08:34:31;12.07;;;6.50;;
51270;SDS011;37744;50.960;4.136;2023-02-28T08:36:57;12.20;;;6.70;;
51270;SDS011;37744;50.960;4.136;2023-02-28T08:39:22;10.35;;;5.55;;
51270;SDS011;37744;50.960;4.136;2023-02-28T08:41:47;10.10;;;5.85;;
51270;SDS011;37744;50.960;4.136;2023-02-28T08:44:12;9.85;;;6.28;;
51270;SDS011;37744;50.960;4.136;2023-02-28T08:46:38;12.20;;;5.60;;
51270;SDS011;37744;50.960;4.136;2023-02-28T08:49:03;9.05;;;5.72;;
51270;SDS011;37744;50.960;4.136;2023-02-28T08:51:29;10.60;;;5.47;;
51270;SDS011;37744;50.960;4.136;2023-02-28T08:53:54;12.82;;;5.45;;
51270;SDS011;37744;50.960;4.136;2023-02-28T08:56:20;9.10;;;4.72;;
51270;SDS011;37744;50.960;4.136;2023-02-28T08:58:46;9.38;;;4.55;;
51270;SDS011;37744;50.960;4.136;2023-02-28T09:01:16;11.30;;;4.78;;
51270;SDS011;37744;50.960;4.136;2023-02-28T09:03:41;7.80;;;4.60;;
51270;SDS011;37744;50.960;4.136;2023-02-28T09:06:08;10.45;;;4.60;;
51270;SDS011;37744;50.960;4.136;2023-02-28T09:08:33;5.57;;;3.90;;
51270;SDS011;37744;50.960;4.136;2023-02-28T09:10:59;9.05;;;4.25;;
51270;SDS011;37744;50.960;4.136;2023-02-28T09:13:25;7.35;;;3.60;;
51270;SDS011;37744;50.960;4.136;2023-02-28T09:15:50;11.93;;;3.53;;
51270;SDS011;37744;50.960;4.136;2023-02-28T09:18:15;5.80;;;2.95;;
51270;SDS011;37744;50.960;4.136;2023-02-28T09:20:41;4.28;;;2.80;;
51270;SDS011;37744;50.960;4.136;2023-02-28T09:23:07;8.43;;;2.90;;
51270;SDS011;37744;50.960;4.136;2023-02-28T09:25:32;6.55;;;2.92;;
51270;SDS011;37744;50.960;4.136;2023-02-28T09:27:58;4.72;;;3.13;;
51270;SDS011;37744;50.960;4.136;2023-02-28T09:30:23;5.15;;;3.45;;
51270;SDS011;37744;50.960;4.136;2023-02-28T09:32:48;4.00;;;2.80;;
51270;SDS011;37744;50.960;4.136;2023-02-28T09:35:20;4.10;;;2.63;;
51270;SDS011;37744;50.960;4.136;2023-02-28T09:37:46;5.40;;;3.03;;
51270;SDS011;37744;50.960;4.136;2023-02-28T09:40:12;5.18;;;3.25;;
51270;SDS011;37744;50.960;4.136;2023-02-28T09:42:37;5.28;;;3.63;;
51270;SDS011;37744;50.960;4.136;2023-02-28T09:45:08;6.85;;;3.00;;
51270;SDS011;37744;50.960;4.136;2023-02-28T09:47:39;8.68;;;3.50;;
51270;SDS011;37744;50.960;4.136;2023-02-28T09:50:52;4.00;;;3.45;;
51270;SDS011;37744;50.960;4.136;2023-02-28T09:52:51;6.78;;;2.70;;
51270;SDS011;37744;50.960;4.136;2023-02-28T09:55:22;3.47;;;2.55;;
51270;SDS011;37744;50.960;4.136;2023-02-28T09:57:50;4.43;;;2.75;;
51270;SDS011;37744;50.960;4.136;2023-02-28T10:00:52;4.13;;;2.25;;
51270;SDS011;37744;50.960;4.136;2023-02-28T10:05:53;3.20;;;2.08;;
51270;SDS011;37744;50.960;4.136;2023-02-28T10:08:42;3.60;;;2.40;;
51270;SDS011;37744;50.960;4.136;2023-02-28T10:11:11;2.92;;;2.25;;
51270;SDS011;37744;50.960;4.136;2023-02-28T10:13:51;3.05;;;2.25;;
51270;SDS011;37744;50.960;4.136;2023-02-28T10:16:29;2.95;;;2.17;;
51270;SDS011;37744;50.960;4.136;2023-02-28T10:18:57;4.03;;;2.25;;
51270;SDS011;37744;50.960;4.136;2023-02-28T10:21:28;3.30;;;1.95;;
51270;SDS011;37744;50.960;4.136;2023-02-28T10:23:59;2.20;;;1.60;;
51270;SDS011;37744;50.960;4.136;2023-02-28T10:26:26;5.03;;;1.90;;
51270;SDS011;37744;50.960;4.136;2023-02-28T10:28:53;3.17;;;1.70;;
51270;SDS011;37744;50.960;4.136;2023-02-28T10:31:19;3.88;;;1.88;;
51270;SDS011;37744;50.960;4.136;2023-02-28T10:33:45;3.80;;;1.95;;
51270;SDS011;37744;50.960;4.136;2023-02-28T10:36:14;3.65;;;2.00;;
51270;SDS011;37744;50.960;4.136;2023-02-28T10:38:41;3.28;;;1.90;;
51270;SDS011;37744;50.960;4.136;2023-02-28T10:43:32;3.50;;;1.92;;
51270;SDS011;37744;50.960;4.136;2023-02-28T10:48:38;2.42;;;1.90;;
51270;SDS011;37744;50.960;4.136;2023-02-28T10:51:05;3.83;;;2.10;;
51270;SDS011;37744;50.960;4.136;2023-02-28T10:56:22;5.28;;;2.13;;
51270;SDS011;37744;50.960;4.136;2023-02-28T10:59:22;3.53;;;2.28;;
51270;SDS011;37744;50.960;4.136;2023-02-28T11:01:48;4.05;;;2.35;;
51270;SDS011;37744;50.960;4.136;2023-02-28T11:04:19;3.58;;;2.30;;
51270;SDS011;37744;50.960;4.136;2023-02-28T11:06:47;2.40;;;2.03;;
51270;SDS011;37744;50.960;4.136;2023-02-28T11:11:51;2.92;;;2.10;;
51270;SDS011;37744;50.960;4.136;2023-02-28T11:14:21;2.72;;;1.90;;
51270;SDS011;37744;50.960;4.136;2023-02-28T11:16:47;2.50;;;1.85;;
51270;SDS011;37744;50.960;4.136;2023-02-28T11:19:19;3.03;;;2.50;;
51270;SDS011;37744;50.960;4.136;2023-02-28T11:21:51;2.15;;;1.90;;
51270;SDS011;37744;50.960;4.136;2023-02-28T11:26:51;2.67;;;1.88;;
51270;SDS011;37744;50.960;4.136;2023-02-28T11:29:18;2.95;;;1.92;;
51270;SDS011;37744;50.960;4.136;2023-02-28T11:31:59;4.97;;;2.03;;
51270;SDS011;37744;50.960;4.136;2023-02-28T11:34:26;3.17;;;1.70;;
51270;SDS011;37744;50.960;4.136;2023-02-28T11:36:54;4.97;;;2.60;;
51270;SDS011;37744;50.960;4.136;2023-02-28T11:39:19;2.13;;;1.85;;
51270;SDS011;37744;50.960;4.136;2023-02-28T11:47:12;3.70;;;1.92;;
51270;SDS011;37744;50.960;4.136;2023-02-28T11:52:25;2.90;;;1.92;;
51270;SDS011;37744;50.960;4.136;2023-02-28T12:08:23;3.03;;;2.28;;
51270;SDS011;37744;50.960;4.136;2023-02-28T12:15:53;3.05;;;2.38;;
51270;SDS011;37744;50.960;4.136;2023-02-28T12:18:35;5.22;;;2.22;;
51270;SDS011;37744;50.960;4.136;2023-02-28T12:28:42;3.22;;;2.10;;
51270;SDS011;37744;50.960;4.136;2023-02-28T12:33:34;2.95;;;2.17;;
51270;SDS011;37744;50.960;4.136;2023-02-28T12:36:03;3.00;;;2.10;;
51270;SDS011;37744;50.960;4.136;2023-02-28T12:41:12;2.20;;;2.03;;
51270;SDS011;37744;50.960;4.136;2023-02-28T12:46:11;2.88;;;2.05;;
51270;SDS011;37744;50.960;4.136;2023-02-28T12:48:40;4.68;;;2.35;;
51270;SDS011;37744;50.960;4.136;2023-02-28T12:51:07;4.97;;;2.33;;
51270;SDS011;37744;50.960;4.136;2023-02-28T12:58:53;2.30;;;2.08;;
51270;SDS011;37744;50.960;4.136;2023-02-28T13:04:02;4.28;;;1.88;;
51270;SDS011;37744;50.960;4.136;2023-02-28T13:11:47;2.08;;;1.90;;
51270;SDS011;37744;50.960;4.136;2023-02-28T13:14:20;1.92;;;1.73;;
51270;SDS011;37744;50.960;4.136;2023-02-28T13:16:57;3.17;;;1.70;;
51270;SDS011;37744;50.960;4.136;2023-02-28T13:19:25;5.25;;;2.38;;
51270;SDS011;37744;50.960;4.136;2023-02-28T13:21:51;3.17;;;2.20;;
51270;SDS011;37744;50.960;4.136;2023-02-28T13:34:25;5.68;;;2.10;;
51270;SDS011;37744;50.960;4.136;2023-02-28T13:36:51;3.00;;;2.10;;
51270;SDS011;37744;50.960;4.136;2023-02-28T13:47:28;3.25;;;2.28;;
51270;SDS011;37744;50.960;4.136;2023-02-28T13:49:54;3.13;;;2.35;;
51270;SDS011;37744;50.960;4.136;2023-02-28T13:52:41;3.97;;;2.45;;
51270;SDS011;37744;50.960;4.136;2023-02-28T13:55:25;4.82;;;2.42;;
51270;SDS011;37744;50.960;4.136;2023-02-28T13:57:57;4.05;;;2.30;;
51270;SDS011;37744;50.960;4.136;2023-02-28T14:03:23;3.80;;;2.53;;
51270;SDS011;37744;50.960;4.136;2023-02-28T14:08:35;4.80;;;2.30;;
51270;SDS011;37744;50.960;4.136;2023-02-28T14:11:05;4.50;;;2.58;;
51270;SDS011;37744;50.960;4.136;2023-02-28T14:16:05;3.88;;;2.40;;
51270;SDS011;37744;50.960;4.136;2023-02-28T14:18:34;3.58;;;2.42;;
51270;SDS011;37744;50.960;4.136;2023-02-28T14:21:11;5.40;;;2.75;;
51270;SDS011;37744;50.960;4.136;2023-02-28T14:26:18;4.25;;;2.67;;
51270;SDS011;37744;50.960;4.136;2023-02-28T14:31:45;3.03;;;2.72;;
51270;SDS011;37744;50.960;4.136;2023-02-28T14:36:58;3.22;;;2.70;;
51270;SDS011;37744;50.960;4.136;2023-02-28T14:39:25;3.38;;;2.50;;
51270;SDS011;37744;50.960;4.136;2023-02-28T14:41:51;3.80;;;2.30;;
51270;SDS011;37744;50.960;4.136;2023-02-28T14:46:42;5.28;;;3.78;;
51270;SDS011;37744;50.960;4.136;2023-02-28T14:49:19;6.97;;;2.70;;
51270;SDS011;37744;50.960;4.136;2023-02-28T14:51:45;5.88;;;2.55;;
51270;SDS011;37744;50.960;4.136;2023-02-28T14:54:13;3.17;;;2.60;;
51270;SDS011;37744;50.960;4.136;2023-02-28T14:56:39;4.10;;;2.42;;
51270;SDS011;37744;50.960;4.136;2023-02-28T14:59:05;4.25;;;2.72;;
51270;SDS011;37744;50.960;4.136;2023-02-28T15:01:31;2.55;;;2.25;;
51270;SDS011;37744;50.960;4.136;2023-02-28T15:04:01;2.90;;;2.65;;
51270;SDS011;37744;50.960;4.136;2023-02-28T15:06:27;7.25;;;2.78;;
51270;SDS011;37744;50.960;4.136;2023-02-28T15:11:37;4.80;;;2.53;;
51270;SDS011;37744;50.960;4.136;2023-02-28T15:14:03;3.15;;;2.38;;
51270;SDS011;37744;50.960;4.136;2023-02-28T15:16:36;7.35;;;2.90;;
51270;SDS011;37744;50.960;4.136;2023-02-28T15:19:08;4.97;;;2.80;;
51270;SDS011;37744;50.960;4.136;2023-02-28T15:21:38;5.75;;;2.83;;
51270;SDS011;37744;50.960;4.136;2023-02-28T15:24:05;3.97;;;2.90;;
51270;SDS011;37744;50.960;4.136;2023-02-28T15:26:33;4.15;;;2.97;;
51270;SDS011;37744;50.960;4.136;2023-02-28T15:29:00;6.20;;;2.80;;
51270;SDS011;37744;50.960;4.136;2023-02-28T15:33:52;6.25;;;2.90;;
51270;SDS011;37744;50.960;4.136;2023-02-28T15:36:17;3.47;;;2.50;;
51270;SDS011;37744;50.960;4.136;2023-02-28T15:38:45;4.15;;;2.70;;
51270;SDS011;37744;50.960;4.136;2023-02-28T15:41:28;3.67;;;2.85;;
51270;SDS011;37744;50.960;4.136;2023-02-28T15:46:38;6.57;;;3.20;;
51270;SDS011;37744;50.960;4.136;2023-02-28T15:49:03;10.05;;;3.00;;
51270;SDS011;37744;50.960;4.136;2023-02-28T15:51:30;5.38;;;2.58;;
51270;SDS011;37744;50.960;4.136;2023-02-28T15:53:58;5.95;;;2.60;;
51270;SDS011;37744;50.960;4.136;2023-02-28T15:56:25;5.78;;;2.75;;
51270;SDS011;37744;50.960;4.136;2023-02-28T15:59:01;6.15;;;2.72;;
51270;SDS011;37744;50.960;4.136;2023-02-28T16:01:31;4.38;;;2.65;;
51270;SDS011;37744;50.960;4.136;2023-02-28T16:04:16;3.35;;;2.60;;
51270;SDS011;37744;50.960;4.136;2023-02-28T16:06:45;3.22;;;2.60;;
51270;SDS011;37744;50.960;4.136;2023-02-28T16:09:12;3.45;;;2.75;;
51270;SDS011;37744;50.960;4.136;2023-02-28T16:11:39;5.40;;;2.90;;
51270;SDS011;37744;50.960;4.136;2023-02-28T16:14:06;4.53;;;2.88;;
51270;SDS011;37744;50.960;4.136;2023-02-28T16:16:31;6.57;;;3.00;;
51270;SDS011;37744;50.960;4.136;2023-02-28T16:18:57;3.88;;;2.63;;
51270;SDS011;37744;50.960;4.136;2023-02-28T16:21:23;5.13;;;2.83;;
51270;SDS011;37744;50.960;4.136;2023-02-28T16:23:49;5.38;;;3.33;;
51270;SDS011;37744;50.960;4.136;2023-02-28T16:26:23;7.85;;;3.45;;
51270;SDS011;37744;50.960;4.136;2023-02-28T16:28:50;3.75;;;2.80;;
51270;SDS011;37744;50.960;4.136;2023-02-28T16:31:16;3.80;;;2.70;;
51270;SDS011;37744;50.960;4.136;2023-02-28T16:33:42;4.43;;;2.58;;
51270;SDS011;37744;50.960;4.136;2023-02-28T16:36:13;5.68;;;2.90;;
51270;SDS011;37744;50.960;4.136;2023-02-28T16:38:38;3.63;;;2.90;;
51270;SDS011;37744;50.960;4.136;2023-02-28T16:41:04;5.38;;;3.17;;
51270;SDS011;37744;50.960;4.136;2023-02-28T16:43:30;6.95;;;3.28;;
51270;SDS011;37744;50.960;4.136;2023-02-28T16:45:55;4.10;;;2.90;;
51270;SDS011;37744;50.960;4.136;2023-02-28T16:48:24;4.80;;;3.33;;
51270;SDS011;37744;50.960;4.136;2023-02-28T16:50:50;5.82;;;2.97;;
51270;SDS011;37744;50.960;4.136;2023-02-28T16:53:16;4.70;;;3.25;;
51270;SDS011;37744;50.960;4.136;2023-02-28T16:55:41;9.25;;;4.65;;
51270;SDS011;37744;50.960;4.136;2023-02-28T16:58:06;10.20;;;5.88;;
51270;SDS011;37744;50.960;4.136;2023-02-28T17:00:32;15.15;;;8.63;;
51270;SDS011;37744;50.960;4.136;2023-02-28T17:02:57;19.60;;;10.32;;
51270;SDS011;37744;50.960;4.136;2023-02-28T17:05:24;21.63;;;12.02;;
51270;SDS011;37744;50.960;4.136;2023-02-28T17:07:50;29.33;;;17.30;;
51270;SDS011;37744;50.960;4.136;2023-02-28T17:10:17;29.63;;;15.05;;
51270;SDS011;37744;50.960;4.136;2023-02-28T17:12:42;21.58;;;10.95;;
51270;SDS011;37744;50.960;4.136;2023-02-28T17:15:09;33.72;;;14.68;;
51270;SDS011;37744;50.960;4.136;2023-02-28T17:17:34;23.80;;;9.68;;